createdAt,value
2022-09-03T00:01:38.839Z,1.73
2022-09-03T00:03:46.669Z,1.53
2022-09-03T00:05:54.683Z,1.50
2022-09-03T00:08:03.811Z,1.63
2022-09-03T00:10:13.047Z,1.70
2022-09-03T00:12:23.956Z,1.93
2022-09-03T00:14:34.755Z,2.10
2022-09-03T00:16:45.209Z,2.30
2022-09-03T00:18:54.509Z,2.43
2022-09-03T00:21:08.220Z,2.13
2022-09-03T00:23:18.514Z,2.20
2022-09-03T00:25:27.983Z,2.00
2022-09-03T00:27:37.768Z,2.30
2022-09-03T00:29:46.714Z,1.67
2022-09-03T00:31:54.531Z,1.87
2022-09-03T00:34:01.662Z,1.83
2022-09-03T00:36:12.524Z,2.00
2022-09-03T00:38:15.793Z,1.67
2022-09-03T00:40:46.411Z,1.83
2022-09-03T00:42:58.492Z,2.10
2022-09-03T00:45:18.469Z,1.90
2022-09-03T00:47:28.612Z,1.80
2022-09-03T00:49:40.560Z,1.70
2022-09-03T00:51:52.188Z,1.60
2022-09-03T00:54:03.608Z,1.77
2022-09-03T00:56:16.311Z,1.40
2022-09-03T00:58:38.215Z,1.60
2022-09-03T01:00:43.972Z,1.83
2022-09-03T01:02:57.136Z,1.77
2022-09-03T01:05:08.301Z,1.57
2022-09-03T01:07:18.594Z,1.40
2022-09-03T01:09:36.883Z,1.73
2022-09-03T01:11:55.317Z,1.60
2022-09-03T01:14:08.971Z,1.50
2022-09-03T01:16:23.607Z,1.50
2022-09-03T01:18:35.563Z,1.80
2022-09-03T01:20:51.566Z,1.63
2022-09-03T01:23:24.715Z,1.57
2022-09-03T01:25:40.640Z,1.50
2022-09-03T01:28:02.932Z,1.53
2022-09-03T01:30:10.365Z,1.50
2022-09-03T01:32:20.509Z,1.70
2022-09-03T01:34:34.237Z,1.60
2022-09-03T01:36:45.328Z,1.80
2022-09-03T01:38:54.513Z,1.50
2022-09-03T01:41:21.240Z,1.27
2022-09-03T01:43:41.025Z,1.40
2022-09-03T01:45:55.175Z,1.43
2022-09-03T01:48:20.829Z,1.40
2022-09-03T01:50:34.960Z,1.80
2022-09-03T01:52:45.781Z,1.60
2022-09-03T01:55:00.365Z,1.50
2022-09-03T01:57:34.655Z,1.53
2022-09-03T01:59:46.697Z,1.60
2022-09-03T02:01:56.771Z,1.60
2022-09-03T02:04:01.052Z,1.90
2022-09-03T02:06:07.052Z,1.50
2022-09-03T02:08:11.782Z,1.57
2022-09-03T02:10:17.305Z,1.67
2022-09-03T02:12:21.609Z,1.60
2022-09-03T02:14:26.337Z,1.40
2022-09-03T02:16:34.265Z,1.50
2022-09-03T02:18:41.902Z,1.53
2022-09-03T02:20:44.916Z,1.60
2022-09-03T02:22:49.513Z,1.40
2022-09-03T02:24:52.613Z,1.37
2022-09-03T02:26:55.786Z,1.40
2022-09-03T02:28:59.076Z,1.37
2022-09-03T02:31:02.790Z,1.27
2022-09-03T02:33:07.258Z,1.40
2022-09-03T02:35:11.136Z,1.43
2022-09-03T02:37:18.217Z,1.30
2022-09-03T02:39:21.222Z,1.50
2022-09-03T02:41:26.390Z,1.40
2022-09-03T02:43:35.071Z,1.50
2022-09-03T02:45:43.329Z,1.47
2022-09-03T02:47:48.639Z,1.60
2022-09-03T02:49:52.904Z,1.60
2022-09-03T02:52:00.760Z,1.60
2022-09-03T02:54:03.926Z,1.67
2022-09-03T02:56:07.448Z,1.80
2022-09-03T02:58:10.388Z,1.63
2022-09-03T03:00:13.973Z,1.60
2022-09-03T03:02:16.882Z,1.60
2022-09-03T03:04:19.706Z,1.60
2022-09-03T03:06:24.328Z,1.50
2022-09-03T03:08:30.446Z,1.70
2022-09-03T03:10:33.220Z,1.60
2022-09-03T03:12:36.211Z,1.70
2022-09-03T03:14:39.217Z,1.60
2022-09-03T03:16:42.309Z,1.67
2022-09-03T03:18:46.103Z,1.47
2022-09-03T03:20:49.066Z,1.80
2022-09-03T03:22:53.164Z,1.40
2022-09-03T03:24:57.768Z,1.70
2022-09-03T03:27:00.618Z,1.60
2022-09-03T03:29:05.743Z,1.60
2022-09-03T03:31:09.483Z,1.80
2022-09-03T03:33:12.600Z,1.40
2022-09-03T03:35:15.671Z,1.60
2022-09-03T03:37:18.750Z,1.50
2022-09-03T03:39:22.896Z,1.67
2022-09-03T03:41:27.217Z,1.67
2022-09-03T03:43:33.657Z,1.50
2022-09-03T03:45:36.803Z,1.50
2022-09-03T03:47:39.884Z,1.60
2022-09-03T03:49:42.964Z,1.60
2022-09-03T03:51:45.936Z,1.60
2022-09-03T03:53:48.965Z,1.60
2022-09-03T03:55:59.738Z,1.80
2022-09-03T03:58:03.194Z,1.50
2022-09-03T04:00:07.324Z,1.30
2022-09-03T04:02:10.362Z,1.67
2022-09-03T04:04:13.773Z,1.80
2022-09-03T04:06:18.539Z,1.60
2022-09-03T04:08:21.592Z,1.50
2022-09-03T04:10:24.619Z,1.30
2022-09-03T04:12:29.672Z,1.40
2022-09-03T04:14:32.562Z,1.43
2022-09-03T04:16:36.368Z,1.47
2022-09-03T04:18:40.311Z,1.40
2022-09-03T04:20:43.220Z,1.50
2022-09-03T04:22:50.194Z,1.70
2022-09-03T04:24:54.754Z,1.70
2022-09-03T04:26:57.619Z,1.53
2022-09-03T04:29:04.122Z,1.43
2022-09-03T04:31:10.225Z,1.77
2022-09-03T04:33:16.029Z,1.43
2022-09-03T04:35:19.289Z,1.70
2022-09-03T04:37:22.528Z,1.73
2022-09-03T04:39:25.709Z,1.60
2022-09-03T04:41:30.668Z,1.40
2022-09-03T04:43:33.971Z,1.43
2022-09-03T04:45:41.173Z,1.70
2022-09-03T04:47:45.869Z,1.50
2022-09-03T04:49:48.757Z,1.50
2022-09-03T04:51:51.650Z,1.93
2022-09-03T04:53:57.034Z,1.60
2022-09-03T04:55:59.962Z,1.93
2022-09-03T04:58:03.073Z,1.60
2022-09-03T05:00:10.870Z,1.80
2022-09-03T05:02:15.486Z,1.70
2022-09-03T05:04:19.149Z,1.60
2022-09-03T05:06:22.066Z,1.63
2022-09-03T05:08:26.460Z,1.70
2022-09-03T05:10:29.716Z,1.60
2022-09-03T05:12:33.578Z,1.40
2022-09-03T05:14:36.831Z,1.50
2022-09-03T05:16:40.110Z,1.57
2022-09-03T05:18:44.975Z,1.40
2022-09-03T05:20:48.127Z,1.50
2022-09-03T05:22:50.947Z,1.40
2022-09-03T05:24:56.142Z,1.70
2022-09-03T05:26:58.980Z,1.47
2022-09-03T05:29:05.796Z,1.60
2022-09-03T05:31:10.867Z,1.40
2022-09-03T05:33:15.285Z,1.70
2022-09-03T05:35:24.117Z,1.53
2022-09-03T05:37:28.717Z,1.70
2022-09-03T05:39:31.619Z,1.63
2022-09-03T05:41:34.897Z,1.57
2022-09-03T05:43:38.660Z,1.50
2022-09-03T05:45:41.762Z,1.70
2022-09-03T05:47:44.548Z,1.50
2022-09-03T05:49:47.370Z,1.30
2022-09-03T05:51:51.607Z,1.60
2022-09-03T05:53:55.451Z,1.50
2022-09-03T05:55:59.601Z,1.40
2022-09-03T05:58:02.442Z,1.37
2022-09-03T06:00:05.897Z,1.30
2022-09-03T06:02:08.869Z,1.67
2022-09-03T06:04:16.732Z,1.80
2022-09-03T06:06:22.758Z,1.70
2022-09-03T06:08:27.558Z,1.70
2022-09-03T06:10:38.790Z,1.43
2022-09-03T06:12:44.920Z,1.60
2022-09-03T06:14:47.750Z,1.73
2022-09-03T06:16:52.756Z,1.77
2022-09-03T06:18:56.319Z,1.53
2022-09-03T06:21:00.572Z,1.40
2022-09-03T06:23:04.003Z,1.50
2022-09-03T06:25:09.760Z,1.70
2022-09-03T06:27:12.811Z,1.50
2022-09-03T06:29:19.788Z,1.83
2022-09-03T06:31:23.757Z,1.80
2022-09-03T06:33:26.698Z,1.57
2022-09-03T06:35:29.601Z,1.80
2022-09-03T06:37:41.149Z,1.60
2022-09-03T06:39:44.199Z,1.67
2022-09-03T06:41:51.914Z,1.47
2022-09-03T06:43:57.197Z,1.87
2022-09-03T06:46:01.755Z,1.40
2022-09-03T06:48:05.215Z,1.30
2022-09-03T06:50:08.597Z,1.42
2022-09-03T06:52:11.526Z,1.45
2022-09-03T06:54:15.741Z,1.30
2022-09-03T06:56:26.237Z,1.40
2022-09-03T06:58:32.508Z,1.30
2022-09-03T07:00:35.536Z,1.30
2022-09-03T07:02:44.739Z,1.50
2022-09-03T07:04:48.935Z,1.95
2022-09-03T07:06:52.098Z,1.92
2022-09-03T07:08:57.842Z,1.30
2022-09-03T07:11:01.609Z,1.88
2022-09-03T07:13:06.503Z,1.92
2022-09-03T07:15:12.326Z,1.70
2022-09-03T07:17:15.436Z,1.98
2022-09-03T07:19:18.744Z,1.73
2022-09-03T07:21:23.319Z,1.55
2022-09-03T07:23:26.201Z,1.95
2022-09-03T07:25:30.803Z,1.50
2022-09-03T07:27:35.414Z,1.60
2022-09-03T07:29:38.539Z,1.80
2022-09-03T07:31:44.336Z,1.77
2022-09-03T07:33:50.503Z,1.90
2022-09-03T07:35:53.409Z,1.50
2022-09-03T07:37:56.240Z,1.77
2022-09-03T07:39:59.199Z,1.60
2022-09-03T07:42:02.277Z,2.00
2022-09-03T07:44:06.505Z,2.00
2022-09-03T07:46:12.951Z,2.10
2022-09-03T07:48:17.899Z,1.90
2022-09-03T07:50:20.843Z,1.70
2022-09-03T07:52:24.106Z,1.70
2022-09-03T07:54:27.324Z,1.90
2022-09-03T07:56:31.984Z,1.70
2022-09-03T07:58:36.031Z,1.70
2022-09-03T08:00:39.023Z,1.63
2022-09-03T08:02:45.940Z,1.80
2022-09-03T08:04:50.668Z,1.83
2022-09-03T08:06:55.511Z,3.45
2022-09-03T08:09:04.589Z,2.30
2022-09-03T08:11:10.685Z,1.70
2022-09-03T08:13:13.509Z,2.13
2022-09-03T08:15:16.568Z,2.28
2022-09-03T08:17:19.434Z,1.67
2022-09-03T08:19:23.173Z,1.40
2022-09-03T08:21:28.733Z,1.60
2022-09-03T08:23:31.554Z,1.58
2022-09-03T08:25:34.757Z,1.52
2022-09-03T08:27:37.604Z,1.58
2022-09-03T08:29:40.465Z,1.70
2022-09-03T08:31:44.335Z,1.50
2022-09-03T08:33:49.280Z,1.73
2022-09-03T08:35:54.326Z,1.60
2022-09-03T08:38:01.636Z,1.65
2022-09-03T08:40:06.152Z,1.23
2022-09-03T08:42:23.668Z,1.60
2022-09-03T08:44:31.389Z,1.52
2022-09-03T08:46:44.597Z,1.40
2022-09-03T08:48:48.236Z,1.60
2022-09-03T08:50:59.069Z,1.58
2022-09-03T08:53:10.989Z,1.92
2022-09-03T08:55:21.345Z,1.80
2022-09-03T08:57:26.072Z,1.73
2022-09-03T08:59:32.738Z,1.67
2022-09-03T09:01:48.001Z,1.65
2022-09-03T09:04:03.661Z,1.70
2022-09-03T09:06:15.861Z,1.85
2022-09-03T09:08:30.374Z,2.08
2022-09-03T09:10:38.913Z,1.70
2022-09-03T09:12:48.634Z,1.50
2022-09-03T09:15:05.432Z,1.70
2022-09-03T09:17:27.992Z,1.45
2022-09-03T09:19:40.513Z,1.70
2022-09-03T09:21:47.327Z,1.50
2022-09-03T09:23:54.055Z,1.52
2022-09-03T09:26:00.354Z,1.75
2022-09-03T09:28:06.384Z,1.58
2022-09-03T09:30:11.467Z,1.73
2022-09-03T09:32:18.785Z,1.73
2022-09-03T09:34:24.394Z,1.45
2022-09-03T09:36:28.119Z,1.40
2022-09-03T09:38:32.388Z,1.50
2022-09-03T09:40:44.839Z,1.70
2022-09-03T09:42:48.260Z,1.42
2022-09-03T09:44:51.355Z,1.50
2022-09-03T09:47:06.627Z,1.45
2022-09-03T09:49:26.257Z,1.38
2022-09-03T09:51:31.808Z,1.50
2022-09-03T09:53:35.024Z,1.38
2022-09-03T09:55:50.572Z,1.50
2022-09-03T09:57:54.901Z,1.60
2022-09-03T10:00:08.810Z,1.58
2022-09-03T10:02:22.119Z,1.60
2022-09-03T10:04:33.258Z,1.58
2022-09-03T10:06:53.962Z,1.30
2022-09-03T10:09:07.620Z,1.50
2022-09-03T10:11:12.802Z,1.55
2022-09-03T10:13:19.800Z,1.50
2022-09-03T10:15:28.919Z,1.83
2022-09-03T10:17:41.302Z,2.08
2022-09-03T10:20:14.347Z,1.73
2022-09-03T10:22:22.688Z,1.70
2022-09-03T10:24:39.546Z,1.90
2022-09-03T10:26:45.775Z,1.40
2022-09-03T10:28:56.094Z,1.80
2022-09-03T10:31:22.560Z,1.35
2022-09-03T10:33:31.395Z,1.73
2022-09-03T10:35:42.036Z,1.60
2022-09-03T10:37:51.879Z,1.70
2022-09-03T10:40:10.030Z,1.83
2022-09-03T10:42:28.011Z,1.95
2022-09-03T10:44:54.181Z,2.10
2022-09-03T10:47:07.174Z,1.90
2022-09-03T10:49:27.493Z,1.70
2022-09-03T10:51:36.385Z,1.80
2022-09-03T10:53:51.461Z,1.58
2022-09-03T10:56:02.292Z,1.73
2022-09-03T10:58:30.661Z,1.80
2022-09-03T11:00:37.868Z,1.50
2022-09-03T11:03:13.545Z,1.77
2022-09-03T11:05:19.931Z,1.80
2022-09-03T11:07:26.550Z,1.60
2022-09-03T11:09:35.299Z,1.42
2022-09-03T11:11:42.325Z,1.90
2022-09-03T11:13:51.389Z,1.80
2022-09-03T11:15:57.216Z,1.88
2022-09-03T11:18:04.474Z,1.80
2022-09-03T11:20:17.589Z,1.85
2022-09-03T11:22:23.193Z,1.80
2022-09-03T11:24:30.372Z,1.50
2022-09-03T11:26:35.139Z,1.77
2022-09-03T11:28:45.235Z,1.48
2022-09-03T11:31:13.398Z,1.60
2022-09-03T11:33:21.993Z,1.92
2022-09-03T11:35:31.322Z,2.00
2022-09-03T11:37:34.460Z,1.30
2022-09-03T11:39:41.411Z,1.80
2022-09-03T11:41:44.489Z,1.90
2022-09-03T11:43:47.329Z,1.65
2022-09-03T11:45:50.390Z,1.77
2022-09-03T11:47:55.311Z,1.60
2022-09-03T11:50:09.457Z,1.80
2022-09-03T11:52:12.283Z,2.10
2022-09-03T11:54:27.848Z,1.90
2022-09-03T11:56:32.336Z,1.80
2022-09-03T11:58:39.001Z,1.80
2022-09-03T12:00:44.477Z,1.92
2022-09-03T12:02:51.643Z,1.85
2022-09-03T12:05:12.919Z,2.00
2022-09-03T12:07:38.492Z,1.90
2022-09-03T12:09:59.996Z,2.10
2022-09-03T12:12:14.018Z,2.30
2022-09-03T12:14:24.502Z,2.03
2022-09-03T12:16:43.077Z,2.13
2022-09-03T12:18:49.226Z,1.70
2022-09-03T12:21:04.156Z,1.92
2022-09-03T12:23:07.407Z,1.70
2022-09-03T12:25:13.044Z,1.73
2022-09-03T12:27:24.101Z,2.00
2022-09-03T12:29:28.736Z,2.25
2022-09-03T12:31:45.639Z,2.15
2022-09-03T12:33:51.332Z,2.08
2022-09-03T12:35:58.680Z,2.20
2022-09-03T12:38:04.953Z,2.22
2022-09-03T12:40:21.156Z,2.03
2022-09-03T12:42:27.049Z,2.10
2022-09-03T12:44:32.317Z,2.35
2022-09-03T12:46:35.176Z,2.22
2022-09-03T12:48:40.335Z,2.10
2022-09-03T12:50:49.370Z,2.40
2022-09-03T12:53:01.671Z,2.00
2022-09-03T12:55:18.600Z,2.53
2022-09-03T12:57:24.656Z,2.50
2022-09-03T12:59:29.780Z,2.40
2022-09-03T13:01:36.501Z,2.33
2022-09-03T13:03:49.519Z,2.70
2022-09-03T13:05:55.970Z,2.55
2022-09-03T13:08:02.793Z,2.40
2022-09-03T13:10:19.078Z,2.50
2022-09-03T13:12:24.386Z,2.40
2022-09-03T13:14:28.237Z,2.40
2022-09-03T13:16:55.055Z,3.00
2022-09-03T13:19:05.793Z,2.55
2022-09-03T13:21:16.224Z,2.72
2022-09-03T13:23:37.443Z,2.50
2022-09-03T13:25:52.958Z,2.20
2022-09-03T13:28:04.730Z,2.72
2022-09-03T13:30:11.946Z,2.50
2022-09-03T13:32:27.266Z,2.42
2022-09-03T13:34:35.972Z,2.80
2022-09-03T13:36:45.295Z,2.38
2022-09-03T13:38:55.424Z,2.40
2022-09-03T13:41:05.142Z,2.83
2022-09-03T13:43:22.881Z,2.13
2022-09-03T13:45:37.866Z,2.13
2022-09-03T13:48:05.130Z,2.20
2022-09-03T13:50:23.714Z,2.00
2022-09-03T13:52:32.462Z,2.00
2022-09-03T13:54:49.255Z,2.10
2022-09-03T13:57:00.941Z,2.15
2022-09-03T13:59:11.128Z,2.03
2022-09-03T14:01:21.756Z,1.90
2022-09-03T14:03:34.657Z,1.88
2022-09-03T14:05:51.625Z,1.90
2022-09-03T14:08:08.767Z,1.90
2022-09-03T14:10:23.092Z,2.13
2022-09-03T14:12:38.757Z,1.92
2022-09-03T14:14:49.966Z,1.80
2022-09-03T14:16:59.444Z,2.22
2022-09-03T14:19:07.987Z,2.00
2022-09-03T14:21:17.961Z,2.00
2022-09-03T14:23:34.000Z,2.20
2022-09-03T14:25:37.129Z,2.10
2022-09-03T14:27:41.641Z,2.10
2022-09-03T14:29:54.502Z,2.20
2022-09-03T14:32:23.960Z,2.20
2022-09-03T14:34:38.179Z,2.00
2022-09-03T14:36:52.214Z,1.80
2022-09-03T14:39:09.422Z,1.88
2022-09-03T14:41:33.203Z,1.73
2022-09-03T14:44:04.532Z,1.60
2022-09-03T14:46:20.281Z,1.70
2022-09-03T14:48:36.679Z,1.55
2022-09-03T14:50:51.777Z,1.67
2022-09-03T14:53:11.952Z,1.70
2022-09-03T14:55:28.887Z,1.48
2022-09-03T14:57:45.693Z,1.90
2022-09-03T15:00:04.693Z,1.90
2022-09-03T15:02:38.168Z,1.80
2022-09-03T15:04:57.049Z,1.75
2022-09-03T15:07:17.107Z,1.75
2022-09-03T15:09:29.565Z,1.55
2022-09-03T15:11:35.089Z,1.60
2022-09-03T15:13:47.235Z,1.30
2022-09-03T15:16:08.995Z,1.70
2022-09-03T15:18:21.618Z,1.65
2022-09-03T15:20:36.967Z,1.85
2022-09-03T15:23:03.717Z,1.67
2022-09-03T15:25:17.594Z,1.52
2022-09-03T15:27:40.905Z,2.00
2022-09-03T15:29:53.736Z,2.03
2022-09-03T15:32:04.875Z,2.10
2022-09-03T15:34:20.823Z,3.22
2022-09-03T15:36:25.904Z,2.65
2022-09-03T15:38:41.208Z,2.00
2022-09-03T15:40:52.492Z,1.90
2022-09-03T15:43:01.628Z,1.60
2022-09-03T15:45:09.652Z,1.83
2022-09-03T15:47:29.452Z,1.73
2022-09-03T15:49:55.580Z,1.90
2022-09-03T15:52:11.596Z,1.67
2022-09-03T15:54:25.189Z,1.63
2022-09-03T15:56:33.339Z,1.70
2022-09-03T15:58:42.920Z,1.50
2022-09-03T16:00:59.932Z,1.70
2022-09-03T16:03:19.293Z,1.65
2022-09-03T16:05:40.211Z,1.50
2022-09-03T16:07:59.404Z,1.52
2022-09-03T16:10:27.936Z,1.70
2022-09-03T16:12:41.700Z,1.50
2022-09-03T16:14:50.598Z,1.65
2022-09-03T16:17:01.335Z,1.60
2022-09-03T16:19:16.923Z,1.88
2022-09-03T16:21:28.230Z,1.42
2022-09-03T16:23:37.065Z,2.05
2022-09-03T16:25:52.774Z,1.60
2022-09-03T16:28:08.099Z,1.75
2022-09-03T16:30:22.361Z,1.55
2022-09-03T16:32:34.659Z,1.60
2022-09-03T16:34:48.753Z,1.80
2022-09-03T16:36:59.064Z,1.55
2022-09-03T16:39:09.648Z,1.60
2022-09-03T16:41:23.976Z,1.40
2022-09-03T16:43:41.130Z,1.50
2022-09-03T16:45:51.163Z,1.40
2022-09-03T16:48:07.748Z,1.85
2022-09-03T16:50:25.213Z,1.70
2022-09-03T16:52:42.708Z,1.90
2022-09-03T16:55:04.901Z,1.90
2022-09-03T16:57:20.099Z,1.70
2022-09-03T16:59:42.116Z,2.03
2022-09-03T17:01:58.896Z,1.85
2022-09-03T17:04:30.007Z,1.92
2022-09-03T17:06:47.401Z,2.05
2022-09-03T17:09:01.715Z,1.80
2022-09-03T17:11:16.299Z,1.80
2022-09-03T17:13:41.504Z,2.17
2022-09-03T17:15:49.662Z,2.03
2022-09-03T17:18:08.841Z,2.00
2022-09-03T17:20:16.288Z,2.20
2022-09-03T17:22:35.092Z,2.10
2022-09-03T17:24:45.001Z,2.20
2022-09-03T17:26:55.812Z,2.10
2022-09-03T17:29:11.209Z,2.10
2022-09-03T17:31:22.160Z,2.20
2022-09-03T17:33:44.701Z,2.17
2022-09-03T17:35:55.437Z,2.00
2022-09-03T17:38:11.609Z,1.77
2022-09-03T17:40:27.236Z,2.00
2022-09-03T17:42:40.459Z,2.00
2022-09-03T17:44:57.940Z,2.05
2022-09-03T17:47:22.459Z,1.92
2022-09-03T17:49:29.972Z,2.10
2022-09-03T17:51:42.727Z,1.83
2022-09-03T17:53:52.968Z,2.28
2022-09-03T17:55:59.998Z,2.10
2022-09-03T17:58:12.588Z,2.17
2022-09-03T18:00:24.924Z,2.10
2022-09-03T18:02:38.709Z,2.08
2022-09-03T18:04:47.570Z,2.00
2022-09-03T18:06:56.412Z,2.20
2022-09-03T18:09:06.203Z,2.17
2022-09-03T18:11:13.781Z,2.15
2022-09-03T18:13:24.356Z,2.33
2022-09-03T18:15:31.907Z,2.10
2022-09-03T18:17:40.290Z,2.20
2022-09-03T18:20:06.653Z,2.30
2022-09-03T18:22:28.397Z,2.33
2022-09-03T18:24:54.133Z,2.10
2022-09-03T18:27:18.507Z,2.10
2022-09-03T18:29:47.750Z,2.28
2022-09-03T18:32:10.513Z,2.30
2022-09-03T18:34:31.062Z,2.33
2022-09-03T18:36:51.508Z,2.30
2022-09-03T18:39:15.539Z,2.83
2022-09-03T18:42:03.996Z,3.00
2022-09-03T18:44:33.533Z,2.47
2022-09-03T18:49:58.596Z,2.53
2022-09-03T18:52:25.847Z,2.58
2022-09-03T18:55:07.418Z,2.60
2022-09-03T18:57:38.850Z,2.33
2022-09-03T19:00:17.177Z,2.50
2022-09-03T19:02:47.599Z,2.53
2022-09-03T19:05:20.286Z,2.20
2022-09-03T19:07:48.604Z,3.00
2022-09-03T19:10:16.533Z,2.60
2022-09-03T19:12:59.615Z,2.53
2022-09-03T19:15:26.033Z,2.67
2022-09-03T19:17:57.998Z,2.50
2022-09-03T19:20:26.576Z,2.42
2022-09-03T19:22:51.888Z,2.80
2022-09-03T19:25:18.098Z,2.75
2022-09-03T19:27:57.005Z,2.60
2022-09-03T19:30:24.269Z,2.42
2022-09-03T19:32:53.351Z,3.20
2022-09-03T19:35:23.933Z,2.97
2022-09-03T19:37:49.689Z,3.50
2022-09-03T19:40:25.911Z,2.88
2022-09-03T19:43:04.791Z,2.85
2022-09-03T19:45:34.312Z,2.78
2022-09-03T19:48:03.737Z,2.53
2022-09-03T19:50:32.183Z,2.70
2022-09-03T19:52:59.338Z,2.60
2022-09-03T19:55:21.451Z,2.80
2022-09-03T19:57:42.843Z,2.53
2022-09-03T20:00:08.550Z,2.60
2022-09-03T20:02:29.471Z,2.35
2022-09-03T20:04:51.561Z,2.47
2022-09-03T20:07:11.995Z,2.42
2022-09-03T20:09:36.035Z,2.58
2022-09-03T20:11:41.495Z,2.60
2022-09-03T20:13:58.255Z,2.40
2022-09-03T20:16:08.175Z,2.30
2022-09-03T20:18:17.301Z,2.38
2022-09-03T20:20:27.688Z,2.45
2022-09-03T20:22:34.367Z,2.40
2022-09-03T20:24:45.637Z,2.40
2022-09-03T20:26:59.425Z,2.30
2022-09-03T20:29:28.835Z,3.00
2022-09-03T20:31:44.891Z,2.50
2022-09-03T20:34:01.256Z,2.38
2022-09-03T20:36:18.308Z,2.58
2022-09-03T20:38:30.850Z,2.50
2022-09-03T20:40:42.170Z,2.40
2022-09-03T20:43:15.760Z,2.80
2022-09-03T20:45:23.503Z,2.63
2022-09-03T20:48:01.872Z,2.60
2022-09-03T20:50:19.508Z,2.67
2022-09-03T20:52:29.262Z,2.42
2022-09-03T20:54:37.032Z,2.40
2022-09-03T20:57:06.892Z,2.45
2022-09-03T20:59:16.701Z,2.30
2022-09-03T21:01:26.511Z,2.13
2022-09-03T21:03:37.080Z,2.08
2022-09-03T21:05:50.040Z,2.20
2022-09-03T21:08:04.242Z,2.40
2022-09-03T21:10:13.365Z,2.10
2022-09-03T21:12:25.271Z,2.00
2022-09-03T21:14:35.107Z,2.17
2022-09-03T21:16:45.847Z,2.17
2022-09-03T21:18:54.232Z,2.05
2022-09-03T21:21:09.525Z,1.95
2022-09-03T21:23:20.915Z,2.20
2022-09-03T21:25:28.679Z,2.13
2022-09-03T21:27:37.217Z,2.10
2022-09-03T21:29:44.245Z,1.70
2022-09-03T21:31:54.613Z,1.80
2022-09-03T21:34:09.164Z,1.67
2022-09-03T21:36:17.728Z,1.90
2022-09-03T21:38:27.841Z,1.77
2022-09-03T21:40:32.458Z,1.70
2022-09-03T21:42:42.071Z,1.80
2022-09-03T21:44:52.556Z,1.85
2022-09-03T21:46:59.796Z,1.95
2022-09-03T21:49:07.419Z,1.83
2022-09-03T21:51:16.075Z,1.95
2022-09-03T21:53:25.887Z,1.73
2022-09-03T21:55:38.025Z,1.70
2022-09-03T21:57:49.225Z,1.98
2022-09-03T22:00:13.847Z,2.20
2022-09-03T22:02:24.343Z,2.17
2022-09-03T22:04:28.214Z,1.95
2022-09-03T22:06:43.979Z,2.28
2022-09-03T22:08:53.096Z,2.78
2022-09-03T22:11:03.087Z,2.42
2022-09-03T22:13:16.476Z,2.60
2022-09-03T22:15:21.988Z,2.60
2022-09-03T22:17:36.135Z,2.47
2022-09-03T22:19:40.094Z,2.97
2022-09-03T22:21:57.077Z,3.10
2022-09-03T22:24:22.087Z,2.55
2022-09-03T22:26:45.523Z,2.40
2022-09-03T22:28:57.662Z,2.50
2022-09-03T22:31:06.033Z,2.33
2022-09-03T22:33:16.915Z,2.20
2022-09-03T22:35:33.368Z,2.35
2022-09-03T22:37:49.964Z,2.90
2022-09-03T22:40:01.906Z,2.53
2022-09-03T22:42:37.413Z,2.40
2022-09-03T22:45:02.357Z,2.67
2022-09-03T22:47:16.415Z,2.50
2022-09-03T22:49:35.903Z,2.90
2022-09-03T22:51:51.508Z,2.63
2022-09-03T22:54:09.192Z,2.70
2022-09-03T22:56:14.424Z,2.90
2022-09-03T22:58:22.176Z,2.63
2022-09-03T23:00:25.943Z,3.13
2022-09-03T23:02:30.955Z,2.70
2022-09-03T23:04:40.856Z,2.95
2022-09-03T23:06:51.141Z,2.88
2022-09-03T23:09:01.247Z,3.13
2022-09-03T23:11:08.154Z,2.88
2022-09-03T23:13:16.472Z,3.28
2022-09-03T23:15:22.923Z,2.87
2022-09-03T23:19:40.637Z,2.70
2022-09-03T23:21:51.840Z,2.83
2022-09-03T23:24:03.091Z,2.67
2022-09-03T23:26:14.162Z,2.70
2022-09-03T23:28:24.067Z,2.70
2022-09-03T23:30:27.383Z,3.00
2022-09-03T23:32:33.281Z,2.90
2022-09-03T23:34:40.404Z,2.70
2022-09-03T23:39:32.422Z,2.80
2022-09-03T23:41:43.012Z,2.50
2022-09-03T23:44:03.862Z,2.40
2022-09-03T23:46:13.232Z,3.10
2022-09-03T23:48:29.866Z,3.10
2022-09-03T23:50:38.654Z,3.00
2022-09-03T23:53:03.505Z,2.40
2022-09-03T23:55:19.147Z,2.70
2022-09-03T23:57:25.494Z,2.90
2022-09-03T23:59:42.151Z,2.93
